Airfield :
LOGIN :

Register | Disclaimer

   EN    FR    IT 

 










Legend :    VFR   Marginal VFR   IFR   Intensive IFR   Very Intensive IFR
Visi :
Ceiling :
>= 8 km
>= 3000ft
5 to 8 km
1000 to 3000 ft
1500m to 5 km
500 to 1000 ft
800 to 1500m
200 to 500 ft
< 800m
< 200 ft
Symbols :   Thunderstorms  Fog  Heavy snow  Heavy precipitations  Wind > 20 kt
SIGMETs :     Misc.  Thunderstorms  Icing  Turbulence  Mountain Waves  Volcanic Ashes







- Airport Elevation : 313 ft
- IATA code : LEH
- Download approach charts


LFOH - Le Havre Octeville

CURRENT METAR :
  • 250630Z AUTO VRB01KT 0200 R22/M0200N FG VV/// 12/12 Q1018 BECMG 3000 BR OVC006

EXPIRED METARs :
  • 250600Z AUTO VRB02KT 0200 0150 R22/M0200 FG VV/// 12/12 Q1018 NOSIG
  • 250530Z AUTO VRB03KT 0200 0150 R22/M0200U FG VV/// 12/11 Q1018 NOSIG
  • 250500Z AUTO VRB01KT 0150 R22/M0200 FG VV/// 11/11 Q1018
  • 250430Z AUTO VRB02KT 0200 0150 R22/M0200 FG VV/// 10/10 Q1017
  • 250400Z AUTO 00000KT 0200 R22/M0200D FG VV/// 10/10 Q1017

TAF TAF LFOH
Valid from the 25 at 06:00 until the 26 at 06:00 UTC


250500Z 2506/2606 VRB02KT 0400 FG VV///
TEMPO 2506/2508 0200
BECMG 2508/2510 3000 BR OVC006
BECMG 2510/2513 9999 NSW SCT030
TEMPO 2513/2516 4000 BR
PROB40
TEMPO 2516/2524 4000 SHRA BKN040CB
PROB40 2600/2606 0400 FG VV///
ATIS : +33 2 35 54 64 93
No reported NOTAMs for that airfield.



MET'MAP, your aeronautical weather chart ! - Copyright ORBIFLY December 2007 - Disclaimer

ORBIFLY MET'MAP TEAM :

Programming & Development : Alexandra Zaïnal
Concept & Development : Baudouin d'Aumeries
Co-Development & Prog : Marc-Olivier Méhu
Technical & hardware support : Manuel Goepfert

Contact : metmap@orbifly.com




SOURCES & CREDITS :

   NOAA